createdAt,value
2018-06-03T00:00:19.185Z,45.63
2018-06-03T00:02:47.313Z,51.60
2018-06-03T00:05:15.697Z,49.47
2018-06-03T00:07:43.816Z,51.00
2018-06-03T00:10:12.026Z,51.07
2018-06-03T00:12:40.205Z,46.53
2018-06-03T00:15:08.367Z,50.87
2018-06-03T00:17:36.447Z,48.57
2018-06-03T00:20:04.549Z,47.27
2018-06-03T00:22:33.012Z,47.63
2018-06-03T00:25:01.139Z,50.60
2018-06-03T00:27:29.223Z,47.50
2018-06-03T00:29:57.355Z,49.17
2018-06-03T00:32:25.485Z,48.87
2018-06-03T00:34:53.650Z,51.03
2018-06-03T00:37:21.769Z,54.07
2018-06-03T00:39:49.863Z,52.00
2018-06-03T00:42:18.008Z,50.90
2018-06-03T00:44:46.128Z,54.67
2018-06-03T00:47:14.240Z,53.30
2018-06-03T00:49:42.347Z,51.80
2018-06-03T00:52:10.508Z,53.43
2018-06-03T00:54:38.652Z,51.93
2018-06-03T00:57:09.592Z,57.03
2018-06-03T00:59:37.732Z,55.33
2018-06-03T01:02:05.896Z,53.10
2018-06-03T01:04:34.006Z,53.20
2018-06-03T01:07:02.120Z,54.07
2018-06-03T01:09:30.215Z,50.23
2018-06-03T01:11:58.363Z,55.47
2018-06-03T01:14:26.464Z,60.23
2018-06-03T01:16:54.566Z,51.03
2018-06-03T01:19:22.866Z,52.63
2018-06-03T01:21:51.070Z,48.60
2018-06-03T01:24:19.188Z,46.07
2018-06-03T01:26:47.303Z,55.07
2018-06-03T01:29:15.483Z,53.17
2018-06-03T01:31:43.622Z,52.37
2018-06-03T01:34:11.716Z,49.00
2018-06-03T01:36:39.863Z,51.93
2018-06-03T01:39:07.974Z,57.60
2018-06-03T01:41:36.130Z,51.57
2018-06-03T01:44:04.251Z,49.90
2018-06-03T01:46:32.399Z,51.83
2018-06-03T01:49:00.548Z,55.37
2018-06-03T01:51:28.663Z,55.00
2018-06-03T01:53:56.759Z,50.27
2018-06-03T01:56:24.873Z,50.40
2018-06-03T01:58:52.956Z,46.20
2018-06-03T02:01:21.103Z,49.67
2018-06-03T02:03:49.233Z,53.50
2018-06-03T02:06:17.372Z,49.17
2018-06-03T02:08:45.637Z,45.00
2018-06-03T02:11:13.732Z,43.67
2018-06-03T02:13:41.873Z,44.27
2018-06-03T02:16:09.934Z,43.97
2018-06-03T02:18:38.042Z,44.40
2018-06-03T02:21:06.191Z,43.73
2018-06-03T02:23:34.340Z,42.77
2018-06-03T02:26:02.418Z,43.63
2018-06-03T02:28:30.511Z,48.93
2018-06-03T02:30:58.622Z,47.10
2018-06-03T02:33:26.688Z,46.07
2018-06-03T02:35:54.758Z,50.10
2018-06-03T02:38:22.844Z,44.97
2018-06-03T02:40:50.908Z,50.17
2018-06-03T02:43:19.046Z,48.27
2018-06-03T02:45:47.125Z,49.83
2018-06-03T02:48:15.195Z,55.47
2018-06-03T02:50:43.277Z,49.50
2018-06-03T02:53:11.494Z,49.00
2018-06-03T02:55:39.564Z,51.70
2018-06-03T02:58:07.638Z,50.87
2018-06-03T03:00:35.911Z,47.13
2018-06-03T03:03:04.104Z,48.73
2018-06-03T03:05:32.164Z,50.83
2018-06-03T03:08:00.237Z,45.73
2018-06-03T03:10:28.321Z,46.67
2018-06-03T03:12:56.385Z,48.83
2018-06-03T03:15:24.561Z,50.43
2018-06-03T03:17:52.701Z,45.63
2018-06-03T03:20:20.874Z,46.53
2018-06-03T03:22:48.950Z,49.73
2018-06-03T03:25:17.175Z,50.70
2018-06-03T03:27:45.350Z,53.47
2018-06-03T03:30:13.539Z,52.07
2018-06-03T03:32:41.720Z,49.30
2018-06-03T03:35:09.833Z,53.83
2018-06-03T03:37:38.203Z,55.57
2018-06-03T03:40:06.451Z,50.40
2018-06-03T03:42:34.757Z,54.03
2018-06-03T03:45:03.092Z,54.47
2018-06-03T03:47:31.435Z,52.17
2018-06-03T03:49:59.756Z,54.33
2018-06-03T03:52:27.960Z,56.70
2018-06-03T03:54:56.163Z,57.30
2018-06-03T03:57:24.432Z,49.73
2018-06-03T03:59:52.829Z,54.17
2018-06-03T04:02:20.979Z,49.90
2018-06-03T04:04:49.139Z,55.10
2018-06-03T04:08:07.698Z,50.27
2018-06-03T04:10:37.465Z,51.63
2018-06-03T04:13:06.921Z,51.70
2018-06-03T04:15:36.583Z,54.10
2018-06-03T04:18:06.211Z,51.70
2018-06-03T04:20:35.695Z,52.50
2018-06-03T04:23:04.997Z,53.83
2018-06-03T04:25:34.422Z,54.00
2018-06-03T04:28:03.899Z,50.60
2018-06-03T04:30:33.418Z,49.27
2018-06-03T04:33:03.228Z,49.40
2018-06-03T04:35:32.512Z,55.80
2018-06-03T04:38:02.565Z,52.83
2018-06-03T04:40:32.350Z,55.83
2018-06-03T04:43:01.892Z,56.73
2018-06-03T04:45:31.330Z,57.83
2018-06-03T04:48:01.059Z,54.43
2018-06-03T04:50:30.689Z,55.90
2018-06-03T04:53:00.140Z,59.33
2018-06-03T04:55:29.963Z,58.00
2018-06-03T04:58:00.497Z,56.13
2018-06-03T05:00:30.107Z,63.50
2018-06-03T05:02:59.972Z,59.27
2018-06-03T05:05:29.907Z,54.67
2018-06-03T05:07:59.699Z,60.07
2018-06-03T05:10:29.219Z,57.50
2018-06-03T05:12:58.798Z,68.70
2018-06-03T05:15:28.392Z,64.50
2018-06-03T05:17:57.985Z,64.67
2018-06-03T05:20:27.723Z,64.67
2018-06-03T05:22:58.160Z,59.13
2018-06-03T05:25:27.939Z,63.83
2018-06-03T05:27:57.728Z,61.83
2018-06-03T05:30:27.597Z,66.93
2018-06-03T05:32:57.619Z,66.83
2018-06-03T05:35:27.538Z,70.10
2018-06-03T05:37:57.755Z,57.93
2018-06-03T05:40:27.780Z,66.00
2018-06-03T05:42:57.355Z,66.63
2018-06-03T05:45:27.104Z,67.80
2018-06-03T05:47:57.028Z,69.00
2018-06-03T05:50:26.979Z,62.73
2018-06-03T05:52:56.883Z,68.13
2018-06-03T05:55:26.456Z,65.53
2018-06-03T05:57:55.923Z,61.30
2018-06-03T06:00:25.834Z,66.43
2018-06-03T06:02:55.338Z,62.17
2018-06-03T06:05:25.051Z,60.30
2018-06-03T06:07:54.862Z,58.47
2018-06-03T06:10:24.639Z,59.00
2018-06-03T06:12:54.551Z,58.03
2018-06-03T06:15:24.199Z,61.17
2018-06-03T06:17:53.760Z,56.67
2018-06-03T06:20:23.405Z,52.90
2018-06-03T06:22:52.900Z,56.87
2018-06-03T06:25:22.604Z,51.83
2018-06-03T06:27:51.977Z,56.97
2018-06-03T06:30:21.697Z,57.97
2018-06-03T06:32:51.526Z,55.00
2018-06-03T06:35:21.349Z,53.40
2018-06-03T06:37:50.973Z,54.00
2018-06-03T06:40:20.474Z,54.90
2018-06-03T06:42:50.311Z,53.43
2018-06-03T06:45:19.969Z,56.97
2018-06-03T06:47:49.560Z,50.37
2018-06-03T06:50:19.504Z,51.83
2018-06-03T06:52:49.459Z,53.47
2018-06-03T06:55:19.008Z,49.20
2018-06-03T06:57:48.725Z,45.53
2018-06-03T07:00:19.034Z,40.33
2018-06-03T07:02:48.615Z,47.40
2018-06-03T07:05:18.483Z,43.53
2018-06-03T07:07:47.873Z,40.20
2018-06-03T07:10:17.528Z,37.90
2018-06-03T07:12:47.542Z,38.40
2018-06-03T07:15:17.552Z,41.27
2018-06-03T07:17:47.226Z,37.93
2018-06-03T07:20:17.308Z,40.87
2018-06-03T07:22:47.075Z,38.40
2018-06-03T07:25:16.837Z,36.50
2018-06-03T07:27:46.728Z,40.53
2018-06-03T07:30:16.283Z,40.27
2018-06-03T07:32:45.683Z,36.13
2018-06-03T07:35:15.173Z,41.47
2018-06-03T07:37:45.023Z,38.83
2018-06-03T07:40:15.070Z,36.30
2018-06-03T07:42:44.681Z,36.67
2018-06-03T07:45:14.375Z,34.33
2018-06-03T07:47:44.100Z,35.07
2018-06-03T07:50:13.966Z,39.30
2018-06-03T07:52:44.397Z,38.27
2018-06-03T07:55:14.076Z,34.87
2018-06-03T07:57:43.549Z,41.73
2018-06-03T08:00:13.585Z,43.37
2018-06-03T08:02:43.288Z,40.97
2018-06-03T08:05:13.061Z,38.83
2018-06-03T08:07:42.673Z,40.50
2018-06-03T08:10:12.215Z,38.13
2018-06-03T08:12:41.810Z,37.73
2018-06-03T08:15:11.008Z,37.83
2018-06-03T08:17:40.176Z,36.63
2018-06-03T08:20:09.653Z,43.60
2018-06-03T08:22:39.724Z,31.80
2018-06-03T08:25:09.216Z,33.87
2018-06-03T08:27:38.781Z,33.60
2018-06-03T08:30:09.166Z,34.53
2018-06-03T08:32:39.043Z,31.90
2018-06-03T08:35:08.805Z,30.50
2018-06-03T08:37:43.430Z,32.33
2018-06-03T08:40:13.104Z,33.63
2018-06-03T08:42:42.834Z,33.93
2018-06-03T08:45:12.774Z,28.43
2018-06-03T08:47:42.661Z,31.70
2018-06-03T08:50:13.030Z,35.93
2018-06-03T08:52:42.750Z,32.13
2018-06-03T08:55:12.585Z,33.43
2018-06-03T08:57:43.469Z,32.27
2018-06-03T09:00:13.166Z,34.20
2018-06-03T09:02:42.806Z,32.07
2018-06-03T09:05:12.703Z,33.30
2018-06-03T09:07:42.160Z,27.80
2018-06-03T09:10:12.033Z,32.07
2018-06-03T09:12:41.578Z,34.97
2018-06-03T09:15:17.997Z,32.50
2018-06-03T09:17:49.629Z,37.27
2018-06-03T09:20:19.500Z,38.63
2018-06-03T09:22:49.305Z,41.63
2018-06-03T09:25:19.064Z,31.30
2018-06-03T09:27:48.857Z,30.63
2018-06-03T09:30:18.804Z,25.33
2018-06-03T09:32:48.660Z,23.63
2018-06-03T09:35:17.979Z,18.53
2018-06-03T09:37:47.623Z,20.17
2018-06-03T09:40:17.039Z,21.40
2018-06-03T09:42:46.789Z,23.00
2018-06-03T09:45:16.456Z,27.57
2018-06-03T09:47:46.179Z,26.43
2018-06-03T09:50:15.677Z,23.27
2018-06-03T09:52:45.361Z,22.33
2018-06-03T09:55:14.964Z,25.37
2018-06-03T09:57:44.678Z,23.37
2018-06-03T10:00:21.471Z,24.60
2018-06-03T10:02:51.187Z,20.90
2018-06-03T10:05:20.684Z,17.53
2018-06-03T10:07:50.242Z,14.50
2018-06-03T10:10:20.144Z,15.67
2018-06-03T10:12:50.138Z,17.77
2018-06-03T10:15:19.991Z,17.13
2018-06-03T10:17:49.687Z,17.90
2018-06-03T10:20:19.423Z,16.43
2018-06-03T10:22:48.892Z,14.47
2018-06-03T10:25:18.450Z,14.07
2018-06-03T10:27:47.843Z,13.10
2018-06-03T10:30:17.739Z,13.80
2018-06-03T10:32:47.562Z,14.13
2018-06-03T10:35:17.547Z,16.20
2018-06-03T10:37:47.515Z,15.07
2018-06-03T10:40:17.847Z,17.90
2018-06-03T10:42:47.483Z,18.10
2018-06-03T10:45:17.235Z,17.83
2018-06-03T10:47:47.136Z,19.50
2018-06-03T10:50:16.761Z,19.80
2018-06-03T10:52:46.496Z,19.70
2018-06-03T10:55:16.127Z,18.80
2018-06-03T10:57:50.147Z,22.10
2018-06-03T11:00:20.162Z,23.37
2018-06-03T11:02:49.919Z,20.73
2018-06-03T11:05:19.721Z,21.37
2018-06-03T11:07:49.104Z,21.03
2018-06-03T11:10:18.956Z,22.93
2018-06-03T11:12:48.823Z,22.63
2018-06-03T11:15:18.529Z,21.20
2018-06-03T11:17:48.190Z,22.57
2018-06-03T11:20:19.217Z,20.43
2018-06-03T11:22:48.960Z,23.43
2018-06-03T11:25:18.664Z,19.67
2018-06-03T11:27:48.419Z,20.40
2018-06-03T11:30:17.993Z,21.73
2018-06-03T11:32:47.890Z,21.23
2018-06-03T11:35:17.494Z,19.60
2018-06-03T11:37:47.166Z,21.07
2018-06-03T11:40:16.778Z,21.27
2018-06-03T11:42:46.365Z,22.27
2018-06-03T11:45:16.155Z,24.77
2018-06-03T11:47:45.780Z,25.00
2018-06-03T11:50:15.240Z,22.67
2018-06-03T11:52:45.118Z,19.43
2018-06-03T11:55:14.628Z,19.37
2018-06-03T11:58:52.750Z,21.13
2018-06-03T12:01:22.721Z,19.33
2018-06-03T12:03:52.615Z,18.90
2018-06-03T12:06:22.231Z,21.23
2018-06-03T12:08:52.192Z,19.30
2018-06-03T12:11:21.947Z,20.10
2018-06-03T12:13:52.091Z,17.07
2018-06-03T12:16:21.590Z,17.27
2018-06-03T12:18:51.110Z,17.53
2018-06-03T12:21:20.537Z,16.97
2018-06-03T12:23:50.102Z,17.33
2018-06-03T12:26:19.750Z,15.23
2018-06-03T12:28:49.196Z,19.37
2018-06-03T12:31:18.708Z,16.77
2018-06-03T12:33:47.889Z,18.50
2018-06-03T12:36:17.730Z,15.30
2018-06-03T12:38:47.451Z,17.80
2018-06-03T12:41:17.290Z,13.93
2018-06-03T12:43:46.819Z,14.47
2018-06-03T12:46:16.575Z,16.77
2018-06-03T12:48:45.918Z,19.77
2018-06-03T12:51:15.246Z,16.57
2018-06-03T12:53:45.116Z,17.37
2018-06-03T12:56:14.661Z,16.97
2018-06-03T12:58:44.778Z,16.87
2018-06-03T13:01:14.820Z,17.43
2018-06-03T13:03:44.804Z,16.57
2018-06-03T13:06:14.664Z,15.90
2018-06-03T13:08:44.231Z,16.67
2018-06-03T13:11:13.678Z,16.40
2018-06-03T13:13:43.071Z,14.70
2018-06-03T13:16:13.042Z,19.27
2018-06-03T13:18:42.698Z,19.20
2018-06-03T13:21:12.425Z,20.03
2018-06-03T13:23:42.253Z,16.53
2018-06-03T13:26:12.192Z,17.60
2018-06-03T13:28:41.746Z,18.17
2018-06-03T13:31:11.650Z,21.50
2018-06-03T13:33:41.199Z,15.63
2018-06-03T13:36:10.843Z,16.20
2018-06-03T13:38:40.460Z,14.10
2018-06-03T13:41:10.283Z,18.33
2018-06-03T13:43:40.294Z,18.60
2018-06-03T13:46:10.239Z,17.57
2018-06-03T13:48:40.235Z,19.00
2018-06-03T13:51:10.319Z,20.70
2018-06-03T13:53:40.338Z,18.37
2018-06-03T13:56:10.431Z,20.73
2018-06-03T13:58:40.450Z,19.07
2018-06-03T14:01:10.526Z,16.70
2018-06-03T14:03:40.494Z,23.53
2018-06-03T14:06:10.391Z,20.67
2018-06-03T14:08:40.394Z,17.03
2018-06-03T14:11:10.952Z,16.83
2018-06-03T14:13:40.951Z,18.37
2018-06-03T14:16:10.308Z,17.73
2018-06-03T14:18:40.231Z,18.47
2018-06-03T14:21:10.380Z,18.47
2018-06-03T14:23:40.051Z,15.53
2018-06-03T14:26:10.029Z,16.53
2018-06-03T14:28:40.071Z,17.10
2018-06-03T14:31:09.811Z,18.63
2018-06-03T14:33:39.504Z,17.23
2018-06-03T14:36:09.956Z,15.73
2018-06-03T14:38:40.192Z,17.17
2018-06-03T14:41:09.817Z,19.80
2018-06-03T14:43:39.719Z,15.33
2018-06-03T14:46:10.314Z,16.63
2018-06-03T14:48:40.351Z,16.43
2018-06-03T14:51:10.511Z,17.73
2018-06-03T14:53:40.930Z,17.13
2018-06-03T14:56:10.578Z,16.87
2018-06-03T14:58:40.604Z,14.23
2018-06-03T15:01:10.445Z,14.37
2018-06-03T15:03:40.152Z,16.30
2018-06-03T15:06:09.866Z,15.07
2018-06-03T15:08:39.468Z,16.77
2018-06-03T15:11:09.230Z,15.80
2018-06-03T15:13:38.750Z,17.70
2018-06-03T15:16:08.176Z,16.53
2018-06-03T15:18:37.824Z,16.83
2018-06-03T15:21:07.711Z,18.47
2018-06-03T15:23:37.928Z,17.07
2018-06-03T15:26:07.794Z,15.87
2018-06-03T15:28:37.810Z,20.43
2018-06-03T15:31:07.827Z,16.50
2018-06-03T15:33:37.534Z,18.13
2018-06-03T15:36:07.805Z,18.97
2018-06-03T15:38:37.578Z,24.43
2018-06-03T15:41:07.440Z,23.23
2018-06-03T15:43:37.237Z,17.60
2018-06-03T15:46:07.239Z,19.00
2018-06-03T15:48:38.004Z,17.07
2018-06-03T15:51:07.861Z,20.10
2018-06-03T15:53:38.464Z,18.57
2018-06-03T15:56:08.715Z,20.50
2018-06-03T15:58:38.858Z,18.80
2018-06-03T16:01:09.272Z,19.80
2018-06-03T16:03:38.878Z,20.53
2018-06-03T16:06:08.480Z,20.13
2018-06-03T16:08:38.269Z,18.83
2018-06-03T16:11:07.903Z,21.30
2018-06-03T16:13:37.559Z,17.50
2018-06-03T16:16:07.720Z,21.27
2018-06-03T16:18:37.467Z,17.47
2018-06-03T16:21:08.409Z,18.67
2018-06-03T16:23:38.374Z,17.27
2018-06-03T16:26:08.099Z,20.50
2018-06-03T16:28:37.960Z,16.47
2018-06-03T16:31:07.835Z,16.40
2018-06-03T16:33:37.443Z,14.83
2018-06-03T16:36:07.112Z,14.63
2018-06-03T16:38:37.219Z,14.93
2018-06-03T16:41:06.783Z,17.27
2018-06-03T16:43:36.292Z,14.97
2018-06-03T16:46:05.769Z,15.63
2018-06-03T16:48:35.946Z,17.40
2018-06-03T16:51:05.491Z,13.97
2018-06-03T16:53:35.215Z,14.23
2018-06-03T16:56:05.764Z,13.40
2018-06-03T16:58:35.635Z,15.17
2018-06-03T17:01:05.552Z,13.93
2018-06-03T17:03:35.361Z,13.87
2018-06-03T17:06:05.237Z,16.20
2018-06-03T17:08:35.879Z,14.03
2018-06-03T17:11:06.218Z,13.90
2018-06-03T17:13:35.931Z,16.30
2018-06-03T17:16:05.537Z,14.70
2018-06-03T17:18:36.316Z,13.87
2018-06-03T17:21:06.321Z,13.67
2018-06-03T17:23:35.893Z,13.83
2018-06-03T17:26:06.016Z,14.93
2018-06-03T17:28:37.132Z,15.97
2018-06-03T17:31:07.420Z,15.37
2018-06-03T17:33:37.287Z,14.90
2018-06-03T17:36:07.120Z,18.33
2018-06-03T17:38:37.726Z,15.30
2018-06-03T17:41:08.138Z,14.57
2018-06-03T17:43:38.663Z,16.03
2018-06-03T17:46:09.033Z,18.70
2018-06-03T17:48:38.594Z,16.13
2018-06-03T17:51:08.543Z,14.37
2018-06-03T17:53:39.490Z,17.50
2018-06-03T17:56:09.703Z,15.60
2018-06-03T17:58:41.901Z,16.63
2018-06-03T18:01:12.568Z,18.83
2018-06-03T18:03:43.100Z,17.40
2018-06-03T18:06:14.422Z,15.10
2018-06-03T18:08:45.672Z,18.97
2018-06-03T18:11:16.196Z,14.23
2018-06-03T18:13:46.339Z,20.37
2018-06-03T18:16:16.613Z,15.53
2018-06-03T18:18:46.590Z,14.83
2018-06-03T18:21:17.062Z,16.50
2018-06-03T18:23:47.786Z,17.50
2018-06-03T18:26:18.415Z,15.63
2018-06-03T18:28:48.298Z,13.93
2018-06-03T18:31:18.250Z,14.63
2018-06-03T18:33:48.485Z,13.87
2018-06-03T18:36:18.157Z,15.43
2018-06-03T18:38:50.281Z,15.17
2018-06-03T18:41:21.076Z,16.80
2018-06-03T18:43:51.250Z,15.73
2018-06-03T18:46:21.318Z,14.57
2018-06-03T18:48:51.300Z,14.83
2018-06-03T18:51:21.685Z,14.07
2018-06-03T18:53:51.044Z,13.93
2018-06-03T18:56:20.897Z,15.93
2018-06-03T18:58:51.210Z,13.90
2018-06-03T19:01:21.605Z,15.10
2018-06-03T19:03:51.156Z,13.37
2018-06-03T19:06:20.930Z,13.97
2018-06-03T19:08:50.483Z,14.87
2018-06-03T19:11:20.165Z,16.40
2018-06-03T19:13:50.041Z,15.73
2018-06-03T19:16:19.462Z,15.93
2018-06-03T19:18:49.138Z,15.50
2018-06-03T19:21:19.330Z,14.80
2018-06-03T19:23:49.050Z,14.60
2018-06-03T19:26:18.489Z,15.43
2018-06-03T19:28:47.670Z,17.00
2018-06-03T19:31:17.077Z,17.77
2018-06-03T19:33:47.829Z,14.10
2018-06-03T19:36:17.149Z,17.90
2018-06-03T19:38:46.232Z,15.10
2018-06-03T19:41:15.501Z,14.27
2018-06-03T19:43:44.768Z,15.00
2018-06-03T19:46:14.179Z,16.70
2018-06-03T19:48:43.324Z,15.63
2018-06-03T19:51:12.511Z,14.43
2018-06-03T19:53:42.000Z,16.17
2018-06-03T19:56:11.166Z,17.00
2018-06-03T19:58:40.628Z,15.07
2018-06-03T20:01:09.654Z,14.97
2018-06-03T20:03:38.815Z,15.93
2018-06-03T20:06:07.999Z,15.50
2018-06-03T20:08:37.265Z,16.30
2018-06-03T20:11:06.334Z,17.20
2018-06-03T20:13:35.609Z,16.47
2018-06-03T20:16:05.144Z,14.77
2018-06-03T20:18:34.578Z,19.03
2018-06-03T20:21:03.875Z,16.20
2018-06-03T20:23:33.282Z,16.80
2018-06-03T20:26:02.588Z,16.47
2018-06-03T20:28:31.836Z,16.93
2018-06-03T20:31:01.061Z,16.50
2018-06-03T20:33:30.525Z,17.13
2018-06-03T20:36:00.134Z,16.70
2018-06-03T20:38:29.574Z,17.10
2018-06-03T20:40:58.973Z,15.93
2018-06-03T20:43:28.405Z,14.33
2018-06-03T20:45:57.877Z,15.87
2018-06-03T20:48:27.200Z,16.70
2018-06-03T20:50:56.675Z,14.77
2018-06-03T20:53:26.329Z,14.73
2018-06-03T20:55:55.678Z,17.20
2018-06-03T20:58:25.207Z,14.80
2018-06-03T21:00:54.898Z,14.90
2018-06-03T21:03:24.308Z,15.67
2018-06-03T21:05:53.736Z,14.33
2018-06-03T21:08:23.035Z,16.03
2018-06-03T21:10:52.301Z,15.33
2018-06-03T21:13:21.875Z,14.47
2018-06-03T21:15:51.319Z,20.63
2018-06-03T21:18:20.671Z,16.63
2018-06-03T21:20:49.866Z,15.17
2018-06-03T21:23:19.197Z,16.93
2018-06-03T21:25:48.576Z,16.33
2018-06-03T21:28:18.219Z,15.57
2018-06-03T21:30:47.648Z,13.77
2018-06-03T21:33:17.303Z,15.97
2018-06-03T21:35:46.745Z,16.53
2018-06-03T21:38:16.086Z,14.40
2018-06-03T21:40:45.529Z,15.60
2018-06-03T21:43:15.113Z,15.10
2018-06-03T21:45:45.190Z,15.23
2018-06-03T21:48:14.725Z,15.53
2018-06-03T21:50:44.225Z,14.40
2018-06-03T21:53:13.658Z,15.83
2018-06-03T21:55:43.262Z,15.50
2018-06-03T21:58:12.793Z,17.77
2018-06-03T22:00:42.278Z,15.37
2018-06-03T22:03:11.871Z,18.27
2018-06-03T22:05:41.216Z,15.60
2018-06-03T22:08:10.437Z,17.70
2018-06-03T22:10:39.679Z,14.17
2018-06-03T22:13:09.181Z,16.20
2018-06-03T22:15:38.382Z,17.27
2018-06-03T22:18:07.709Z,13.57
2018-06-03T22:20:36.876Z,17.53
2018-06-03T22:23:06.170Z,15.13
2018-06-03T22:25:35.443Z,14.93
2018-06-03T22:28:04.655Z,18.30
2018-06-03T22:30:34.015Z,18.07
2018-06-03T22:33:03.320Z,16.07
2018-06-03T22:35:32.907Z,15.90
2018-06-03T22:38:02.237Z,17.40
2018-06-03T22:40:31.473Z,17.90
2018-06-03T22:43:00.765Z,17.93
2018-06-03T22:45:30.088Z,17.10
2018-06-03T22:47:59.453Z,16.27
2018-06-03T22:50:28.754Z,16.07
2018-06-03T22:52:57.910Z,16.50
2018-06-03T22:55:27.205Z,15.83
2018-06-03T22:57:56.509Z,15.63
2018-06-03T23:00:30.405Z,17.13
2018-06-03T23:03:04.911Z,17.07
2018-06-03T23:05:34.357Z,15.83
2018-06-03T23:08:03.680Z,16.37
2018-06-03T23:10:32.852Z,19.37
2018-06-03T23:13:02.012Z,15.73
2018-06-03T23:15:31.479Z,17.77
2018-06-03T23:18:00.720Z,18.90
2018-06-03T23:20:30.037Z,16.60
2018-06-03T23:22:59.430Z,16.70
2018-06-03T23:25:28.617Z,16.27
2018-06-03T23:27:57.981Z,16.53
2018-06-03T23:30:27.139Z,19.33
2018-06-03T23:32:56.321Z,16.33
2018-06-03T23:35:25.575Z,15.83
2018-06-03T23:37:54.886Z,17.17
2018-06-03T23:40:24.359Z,15.97
2018-06-03T23:42:53.504Z,16.53
2018-06-03T23:45:22.684Z,17.47
2018-06-03T23:47:51.994Z,19.90
2018-06-03T23:50:21.154Z,17.27
2018-06-03T23:52:50.508Z,16.93
2018-06-03T23:55:19.764Z,19.53
2018-06-03T23:57:49.380Z,17.23
